createdAt,value
2016-12-23T00:00:16.926Z,0
2016-12-23T00:01:25.497Z,0
2016-12-23T00:02:34.382Z,0
2016-12-23T00:03:42.953Z,0
2016-12-23T00:04:51.870Z,0
2016-12-23T00:06:00.804Z,0
2016-12-23T00:07:10.012Z,0
2016-12-23T00:08:18.575Z,0
2016-12-23T00:09:27.140Z,0
2016-12-23T00:10:36.024Z,0
2016-12-23T00:11:45.262Z,0
2016-12-23T00:12:53.824Z,0
2016-12-23T00:14:03.028Z,0
2016-12-23T00:15:11.594Z,0
2016-12-23T00:16:20.485Z,0
2016-12-23T00:17:29.454Z,0
2016-12-23T00:18:38.025Z,0
2016-12-23T00:19:46.592Z,0
2016-12-23T00:20:55.476Z,0
2016-12-23T00:22:04.042Z,0
2016-12-23T00:23:12.907Z,0
2016-12-23T00:24:21.792Z,0
2016-12-23T00:25:30.679Z,0
2016-12-23T00:26:39.884Z,0
2016-12-23T00:27:48.768Z,0
2016-12-23T00:28:57.489Z,0
2016-12-23T00:30:06.376Z,0
2016-12-23T00:31:15.262Z,0
2016-12-23T00:32:24.154Z,0
2016-12-23T00:33:32.762Z,0
2016-12-23T00:34:41.477Z,0
2016-12-23T00:35:50.682Z,0
2016-12-23T00:36:59.569Z,0
2016-12-23T00:38:08.133Z,0
2016-12-23T00:39:17.017Z,0
2016-12-23T00:40:26.052Z,0
2016-12-23T00:41:35.254Z,0
2016-12-23T00:42:44.139Z,0
2016-12-23T00:43:52.706Z,0
2016-12-23T00:45:01.908Z,0
2016-12-23T00:46:11.463Z,0
2016-12-23T00:47:20.350Z,0
2016-12-23T00:48:29.556Z,0
2016-12-23T00:49:38.445Z,0
2016-12-23T00:50:47.009Z,0
2016-12-23T00:51:55.781Z,0
2016-12-23T00:53:04.984Z,0
2016-12-23T00:54:13.551Z,0
2016-12-23T00:55:22.467Z,0
2016-12-23T00:56:31.671Z,0
2016-12-23T00:57:40.716Z,0
2016-12-23T00:58:49.283Z,0
2016-12-23T00:59:58.165Z,0
2016-12-23T01:01:07.371Z,0
2016-12-23T01:02:15.937Z,0
2016-12-23T01:03:24.874Z,0
2016-12-23T01:04:33.463Z,0
2016-12-23T01:05:42.031Z,0
2016-12-23T01:06:50.597Z,0
2016-12-23T01:07:59.486Z,0
2016-12-23T01:09:08.254Z,0
2016-12-23T01:10:16.822Z,0
2016-12-23T01:11:26.027Z,0
2016-12-23T01:12:34.600Z,0
2016-12-23T01:13:44.122Z,0
2016-12-23T01:14:53.155Z,0
2016-12-23T01:16:01.729Z,0
2016-12-23T01:17:10.297Z,0
2016-12-23T01:18:19.500Z,0
2016-12-23T01:19:29.025Z,0
2016-12-23T01:20:38.111Z,0
2016-12-23T01:21:47.320Z,0
2016-12-23T01:22:55.888Z,0
2016-12-23T01:24:05.096Z,0
2016-12-23T01:25:14.299Z,0
2016-12-23T01:26:23.213Z,0
2016-12-23T01:27:32.098Z,0
2016-12-23T01:28:40.669Z,0
2016-12-23T01:29:49.552Z,0
2016-12-23T01:30:58.432Z,0
2016-12-23T01:32:07.722Z,0
2016-12-23T01:33:16.603Z,0
2016-12-23T01:34:25.175Z,0
2016-12-23T01:35:33.745Z,0
2016-12-23T01:36:42.350Z,0
2016-12-23T01:37:51.389Z,0
2016-12-23T01:39:00.289Z,0
2016-12-23T01:40:09.812Z,0
2016-12-23T01:41:18.376Z,0
2016-12-23T01:42:26.943Z,0
2016-12-23T01:43:35.858Z,0
2016-12-23T01:44:44.746Z,0
2016-12-23T01:45:53.629Z,0
2016-12-23T01:47:02.515Z,0
2016-12-23T01:48:11.720Z,0
2016-12-23T01:49:20.953Z,0
2016-12-23T01:50:29.841Z,0
2016-12-23T01:51:38.418Z,0
2016-12-23T01:52:47.305Z,0
2016-12-23T01:53:55.871Z,0
2016-12-23T01:55:04.787Z,0
2016-12-23T01:56:13.677Z,0
2016-12-23T01:57:23.514Z,0
2016-12-23T01:58:32.083Z,0
2016-12-23T01:59:40.966Z,0
2016-12-23T02:00:49.937Z,0
2016-12-23T02:01:58.819Z,0
2016-12-23T02:03:07.390Z,0
2016-12-23T02:04:15.955Z,0
2016-12-23T02:05:24.520Z,0
2016-12-23T02:06:33.763Z,0
2016-12-23T02:07:42.968Z,0
2016-12-23T02:08:51.533Z,0
2016-12-23T02:10:00.413Z,0
2016-12-23T02:11:09.298Z,0
2016-12-23T02:12:18.953Z,0
2016-12-23T02:13:27.837Z,0
2016-12-23T02:14:36.431Z,0
2016-12-23T02:15:45.319Z,0
2016-12-23T02:16:53.886Z,0
2016-12-23T02:18:03.446Z,0
2016-12-23T02:19:12.016Z,0
2016-12-23T02:20:20.582Z,0
2016-12-23T02:21:29.467Z,0
2016-12-23T02:22:38.355Z,0
2016-12-23T02:23:47.628Z,0
2016-12-23T02:24:56.543Z,0
2016-12-23T02:26:05.125Z,0
2016-12-23T02:27:13.707Z,0
2016-12-23T02:28:22.296Z,0
2016-12-23T02:29:31.638Z,0
2016-12-23T02:30:40.873Z,0
2016-12-23T02:31:49.441Z,0
2016-12-23T02:32:58.327Z,0
2016-12-23T02:34:06.915Z,0
2016-12-23T02:35:16.532Z,0
2016-12-23T02:36:25.446Z,0
2016-12-23T02:37:34.057Z,0
2016-12-23T02:38:42.662Z,0
2016-12-23T02:39:51.892Z,0
2016-12-23T02:41:00.866Z,0
2016-12-23T02:42:09.770Z,0
2016-12-23T02:43:18.356Z,0
2016-12-23T02:44:26.937Z,0
2016-12-23T02:45:36.177Z,0
2016-12-23T02:46:45.474Z,0
2016-12-23T02:47:54.393Z,0
2016-12-23T02:49:03.613Z,0
2016-12-23T02:50:12.202Z,0
2016-12-23T02:51:20.805Z,0
2016-12-23T02:52:29.437Z,0
2016-12-23T02:53:38.348Z,0
2016-12-23T02:54:47.258Z,0
2016-12-23T02:55:56.187Z,0
2016-12-23T02:57:05.081Z,0
2016-12-23T02:58:14.325Z,0
2016-12-23T02:59:22.901Z,0
2016-12-23T03:00:31.492Z,0
2016-12-23T03:01:40.076Z,0
2016-12-23T03:02:48.648Z,0
2016-12-23T03:03:57.586Z,0
2016-12-23T03:05:06.183Z,0
2016-12-23T03:06:15.078Z,0
2016-12-23T03:07:24.006Z,0
2016-12-23T03:08:32.587Z,0
2016-12-23T03:09:41.515Z,0
2016-12-23T03:10:50.101Z,0
2016-12-23T03:11:59.004Z,0
2016-12-23T03:13:07.584Z,0
2016-12-23T03:14:16.812Z,0
2016-12-23T03:15:26.366Z,0
2016-12-23T03:16:34.957Z,0
2016-12-23T03:17:44.187Z,0
2016-12-23T03:18:52.784Z,0
2016-12-23T03:20:01.993Z,0
2016-12-23T03:21:10.638Z,0
2016-12-23T03:22:19.222Z,0
2016-12-23T03:23:28.107Z,0
2016-12-23T03:24:37.018Z,0
2016-12-23T03:25:46.291Z,0
2016-12-23T03:26:55.252Z,0
2016-12-23T03:28:04.481Z,0
2016-12-23T03:29:13.366Z,0
2016-12-23T03:30:21.945Z,0
2016-12-23T03:31:30.517Z,0
2016-12-23T03:32:39.155Z,0
2016-12-23T03:33:48.398Z,0
2016-12-23T03:34:56.959Z,0
2016-12-23T03:36:05.548Z,0
2016-12-23T03:37:14.124Z,0
2016-12-23T03:38:23.717Z,0
2016-12-23T03:39:32.622Z,0
2016-12-23T03:40:41.837Z,0
2016-12-23T03:41:50.738Z,0
2016-12-23T03:42:59.318Z,0
2016-12-23T03:44:08.302Z,0
2016-12-23T03:45:16.878Z,0
2016-12-23T03:46:26.109Z,0
2016-12-23T03:47:35.380Z,0
2016-12-23T03:48:44.310Z,0
2016-12-23T03:49:53.875Z,0
2016-12-23T03:51:02.772Z,0
2016-12-23T03:52:11.693Z,0
2016-12-23T03:53:20.264Z,0
2016-12-23T03:54:29.493Z,0
2016-12-23T03:55:38.746Z,0
2016-12-23T03:56:47.333Z,0
2016-12-23T03:57:55.923Z,0
2016-12-23T03:59:04.502Z,0
2016-12-23T04:00:13.066Z,0
2016-12-23T04:01:22.339Z,0
2016-12-23T04:02:31.228Z,0
2016-12-23T04:03:40.137Z,0
2016-12-23T04:04:49.030Z,0
2016-12-23T04:05:57.932Z,0
2016-12-23T04:07:06.812Z,0
2016-12-23T04:08:15.705Z,0
2016-12-23T04:09:24.278Z,0
2016-12-23T04:10:32.857Z,0
2016-12-23T04:11:41.791Z,0
2016-12-23T04:12:51.481Z,0
2016-12-23T04:14:00.398Z,0
2016-12-23T04:15:09.343Z,0
2016-12-23T04:16:18.262Z,0
2016-12-23T04:17:26.866Z,0
2016-12-23T04:18:35.819Z,0
2016-12-23T04:19:45.050Z,0
2016-12-23T04:20:53.640Z,0
2016-12-23T04:22:02.559Z,0
2016-12-23T04:23:11.140Z,0
2016-12-23T04:24:19.760Z,0
2016-12-23T04:25:28.340Z,0
2016-12-23T04:26:36.912Z,0
2016-12-23T04:27:45.494Z,0
2016-12-23T04:28:54.076Z,0
2016-12-23T04:30:03.331Z,0
2016-12-23T04:31:11.908Z,0
2016-12-23T04:32:20.808Z,0
2016-12-23T04:33:29.719Z,0
2016-12-23T04:34:38.619Z,0
2016-12-23T04:35:47.563Z,0
2016-12-23T04:36:56.136Z,0
2016-12-23T04:38:05.034Z,0
2016-12-23T04:39:13.944Z,0
2016-12-23T04:40:23.158Z,0
2016-12-23T04:41:32.087Z,0
2016-12-23T04:42:40.664Z,0
2016-12-23T04:43:49.242Z,0
2016-12-23T04:44:58.142Z,0
2016-12-23T04:46:07.055Z,0
2016-12-23T04:47:16.308Z,0
2016-12-23T04:48:24.893Z,0
2016-12-23T04:49:33.481Z,0
2016-12-23T04:50:42.727Z,0
2016-12-23T04:51:51.951Z,0
2016-12-23T04:53:00.874Z,0
2016-12-23T04:54:09.783Z,0
2016-12-23T04:55:18.360Z,0
2016-12-23T04:56:26.948Z,0
2016-12-23T04:57:35.848Z,0
2016-12-23T04:58:45.464Z,0
2016-12-23T04:59:54.048Z,0
2016-12-23T05:01:02.632Z,0
2016-12-23T05:02:11.529Z,0
2016-12-23T05:03:21.084Z,0
2016-12-23T05:04:30.381Z,0
2016-12-23T05:05:39.590Z,0
2016-12-23T05:06:48.512Z,0
2016-12-23T05:07:57.090Z,0
2016-12-23T05:09:06.002Z,0
2016-12-23T05:10:15.209Z,0
2016-12-23T05:11:24.112Z,0
2016-12-23T05:12:32.688Z,0
2016-12-23T05:13:41.601Z,0
2016-12-23T05:14:50.845Z,0
2016-12-23T05:16:00.092Z,0
2016-12-23T05:17:08.991Z,0
2016-12-23T05:18:17.896Z,0
2016-12-23T05:19:26.479Z,0
2016-12-23T05:20:35.072Z,0
2016-12-23T05:21:44.708Z,0
2016-12-23T05:22:53.280Z,0
2016-12-23T05:24:01.847Z,0
2016-12-23T05:25:10.459Z,0
2016-12-23T05:26:19.034Z,0
2016-12-23T05:27:28.386Z,0
2016-12-23T05:28:37.273Z,0
2016-12-23T05:29:46.496Z,0
2016-12-23T05:30:55.407Z,0
2016-12-23T05:32:04.947Z,0
2016-12-23T05:33:13.885Z,0
2016-12-23T05:34:22.484Z,0
2016-12-23T05:35:31.698Z,0
2016-12-23T05:36:40.276Z,0
2016-12-23T05:37:49.496Z,0
2016-12-23T05:38:58.829Z,0
2016-12-23T05:40:08.358Z,0
2016-12-23T05:41:16.935Z,0
2016-12-23T05:42:25.510Z,0
2016-12-23T05:43:34.738Z,0
2016-12-23T05:44:43.461Z,0
2016-12-23T05:45:52.366Z,0
2016-12-23T05:47:00.943Z,0
2016-12-23T05:48:09.836Z,0
2016-12-23T05:49:18.419Z,0
2016-12-23T05:50:27.039Z,0
2016-12-23T05:51:35.627Z,0
2016-12-23T05:52:44.518Z,0
2016-12-23T05:53:53.092Z,0
2016-12-23T05:55:02.302Z,0
2016-12-23T05:56:11.254Z,0
2016-12-23T05:57:20.164Z,0
2016-12-23T05:58:28.738Z,0
2016-12-23T05:59:37.312Z,0
2016-12-23T06:00:46.208Z,0
2016-12-23T06:01:55.135Z,0
2016-12-23T06:03:03.718Z,0
2016-12-23T06:04:12.293Z,0
2016-12-23T06:05:21.186Z,0
2016-12-23T06:06:31.034Z,0
2016-12-23T06:07:39.960Z,0
2016-12-23T06:08:48.539Z,0
2016-12-23T06:09:57.441Z,0
2016-12-23T06:11:06.031Z,0
2016-12-23T06:12:14.932Z,0
2016-12-23T06:13:23.854Z,0
2016-12-23T06:14:33.067Z,0
2016-12-23T06:15:42.284Z,0
2016-12-23T06:16:50.865Z,0
2016-12-23T06:17:59.766Z,0
2016-12-23T06:19:08.655Z,0
2016-12-23T06:20:17.233Z,0
2016-12-23T06:21:26.135Z,0
2016-12-23T06:22:35.051Z,0
2016-12-23T06:23:43.631Z,0
2016-12-23T06:24:52.586Z,0
2016-12-23T06:26:01.487Z,0
2016-12-23T06:27:10.403Z,0
2016-12-23T06:28:19.308Z,0
2016-12-23T06:29:28.216Z,0
2016-12-23T06:30:36.946Z,0
2016-12-23T06:31:45.862Z,0
2016-12-23T06:32:54.447Z,0
2016-12-23T06:34:03.672Z,0
2016-12-23T06:35:12.578Z,0
2016-12-23T06:36:21.629Z,0
2016-12-23T06:37:30.508Z,0
2016-12-23T06:38:39.085Z,0
2016-12-23T06:39:47.682Z,0
2016-12-23T06:40:56.565Z,0
2016-12-23T06:42:05.556Z,0
2016-12-23T06:43:14.468Z,0
2016-12-23T06:44:23.363Z,0
2016-12-23T06:45:32.595Z,0
2016-12-23T06:46:41.486Z,0
2016-12-23T06:47:51.371Z,0
2016-12-23T06:49:00.590Z,0
2016-12-23T06:50:09.486Z,0
2016-12-23T06:51:18.387Z,0
2016-12-23T06:52:26.967Z,0
2016-12-23T06:53:36.917Z,0
2016-12-23T06:54:45.494Z,0
2016-12-23T06:55:54.407Z,0
2016-12-23T06:57:03.307Z,0
2016-12-23T06:58:12.210Z,0
2016-12-23T06:59:21.237Z,0
2016-12-23T07:00:30.158Z,0
2016-12-23T07:01:39.387Z,0
2016-12-23T07:02:48.284Z,0
2016-12-23T07:03:57.174Z,0
2016-12-23T07:05:06.130Z,0
2016-12-23T07:06:15.340Z,0
2016-12-23T07:07:24.247Z,0
2016-12-23T07:08:33.154Z,0
2016-12-23T07:09:41.746Z,0
2016-12-23T07:10:51.339Z,0
2016-12-23T07:11:59.914Z,0
2016-12-23T07:13:08.487Z,0
2016-12-23T07:14:17.386Z,0
2016-12-23T07:15:25.956Z,0
2016-12-23T07:16:35.211Z,0
2016-12-23T07:17:44.097Z,0
2016-12-23T07:18:52.679Z,0
2016-12-23T07:20:01.909Z,0
2016-12-23T07:21:10.796Z,0
2016-12-23T07:22:19.512Z,0
2016-12-23T07:23:28.092Z,0
2016-12-23T07:24:37.006Z,0
2016-12-23T07:25:45.906Z,0
2016-12-23T07:26:54.478Z,0
2016-12-23T07:28:03.467Z,0
2016-12-23T07:29:12.385Z,0
2016-12-23T07:30:21.299Z,0
2016-12-23T07:31:30.218Z,5
2016-12-23T07:32:39.460Z,5
2016-12-23T07:33:49.049Z,5
2016-12-23T07:34:57.970Z,5
2016-12-23T07:36:06.552Z,5
2016-12-23T07:37:15.445Z,5
2016-12-23T07:38:24.684Z,5
2016-12-23T07:39:33.720Z,5
2016-12-23T07:40:42.948Z,5
2016-12-23T07:41:51.848Z,5
2016-12-23T07:43:00.421Z,10
2016-12-23T07:44:09.332Z,10
2016-12-23T07:45:18.318Z,10
2016-12-23T07:46:27.225Z,10
2016-12-23T07:47:35.810Z,10
2016-12-23T07:48:44.703Z,10
2016-12-23T07:49:53.315Z,15
2016-12-23T07:51:02.586Z,15
2016-12-23T07:52:11.483Z,15
2016-12-23T07:53:20.059Z,15
2016-12-23T07:54:28.649Z,15
2016-12-23T07:55:37.236Z,20
2016-12-23T07:56:46.116Z,20
2016-12-23T07:57:55.011Z,20
2016-12-23T07:59:03.919Z,25
2016-12-23T08:00:12.525Z,25
2016-12-23T08:01:21.098Z,25
2016-12-23T08:02:29.981Z,25
2016-12-23T08:03:38.570Z,25
2016-12-23T08:04:47.466Z,25
2016-12-23T08:05:56.689Z,30
2016-12-23T08:07:05.589Z,30
2016-12-23T08:08:15.180Z,35
2016-12-23T08:09:24.094Z,40
2016-12-23T08:10:32.696Z,40
2016-12-23T08:11:41.653Z,40
2016-12-23T08:12:50.889Z,45
2016-12-23T08:14:00.151Z,45
2016-12-23T08:15:09.390Z,50
2016-12-23T08:16:18.599Z,55
2016-12-23T08:17:27.502Z,60
2016-12-23T08:18:36.412Z,55
2016-12-23T08:19:45.143Z,55
2016-12-23T08:20:53.726Z,55
2016-12-23T08:22:02.306Z,60
2016-12-23T08:23:10.897Z,55
2016-12-23T08:24:20.119Z,60
2016-12-23T08:25:29.371Z,60
2016-12-23T08:26:37.940Z,60
2016-12-23T08:27:47.161Z,70
2016-12-23T08:28:56.055Z,70
2016-12-23T08:30:04.959Z,80
2016-12-23T08:31:14.553Z,85
2016-12-23T08:32:23.460Z,80
2016-12-23T08:33:32.686Z,80
2016-12-23T08:34:41.302Z,85
2016-12-23T08:35:50.196Z,80
2016-12-23T08:36:58.900Z,70
2016-12-23T08:38:07.493Z,80
2016-12-23T08:39:16.067Z,75
2016-12-23T08:40:24.961Z,65
2016-12-23T08:41:34.178Z,80
2016-12-23T08:42:43.077Z,90
2016-12-23T08:43:51.974Z,70
2016-12-23T08:45:01.212Z,65
2016-12-23T08:46:09.801Z,85
2016-12-23T08:47:18.375Z,95
2016-12-23T08:48:27.387Z,75
2016-12-23T08:49:36.300Z,95
2016-12-23T08:50:45.195Z,80
2016-12-23T08:51:54.118Z,110
2016-12-23T08:53:03.007Z,85
2016-12-23T08:54:11.947Z,75
2016-12-23T08:55:20.845Z,85
2016-12-23T08:56:29.758Z,110
2016-12-23T08:57:38.989Z,105
2016-12-23T08:58:47.577Z,90
2016-12-23T08:59:56.617Z,75
2016-12-23T09:01:05.512Z,90
2016-12-23T09:02:14.112Z,110
2016-12-23T09:03:22.685Z,110
2016-12-23T09:04:31.264Z,125
2016-12-23T09:05:40.157Z,100
2016-12-23T09:06:49.390Z,90
2016-12-23T09:07:58.296Z,95
2016-12-23T09:09:06.871Z,110
2016-12-23T09:10:15.458Z,110
2016-12-23T09:11:24.723Z,95
2016-12-23T09:12:33.628Z,95
2016-12-23T09:13:42.211Z,110
2016-12-23T09:14:50.793Z,110
2016-12-23T09:15:59.678Z,140
2016-12-23T09:17:08.983Z,135
2016-12-23T09:18:17.876Z,150
2016-12-23T09:19:27.108Z,165
2016-12-23T09:20:36.004Z,165
2016-12-23T09:21:44.595Z,165
2016-12-23T09:22:53.527Z,160
2016-12-23T09:24:02.473Z,225
2016-12-23T09:25:11.397Z,195
2016-12-23T09:26:20.611Z,225
2016-12-23T09:27:29.201Z,215
2016-12-23T09:28:38.821Z,200
2016-12-23T09:29:47.405Z,195
2016-12-23T09:30:56.314Z,205
2016-12-23T09:32:04.909Z,220
2016-12-23T09:33:13.809Z,180
2016-12-23T09:34:22.754Z,185
2016-12-23T09:35:31.988Z,210
2016-12-23T09:36:40.902Z,200
2016-12-23T09:37:49.806Z,180
2016-12-23T09:38:58.391Z,190
2016-12-23T09:40:07.432Z,195
2016-12-23T09:41:16.349Z,155
2016-12-23T09:42:24.925Z,170
2016-12-23T09:43:33.509Z,165
2016-12-23T09:44:42.405Z,155
2016-12-23T09:45:51.347Z,145
2016-12-23T09:46:59.937Z,145
2016-12-23T09:48:08.829Z,135
2016-12-23T09:49:17.403Z,135
2016-12-23T09:50:26.318Z,145
2016-12-23T09:51:35.678Z,145
2016-12-23T09:52:44.270Z,170
2016-12-23T09:53:53.175Z,155
2016-12-23T09:55:01.755Z,165
2016-12-23T09:56:10.338Z,160
2016-12-23T09:57:19.270Z,170
2016-12-23T09:58:27.854Z,200
2016-12-23T09:59:36.774Z,195
2016-12-23T10:00:45.369Z,265
2016-12-23T10:01:53.956Z,280
2016-12-23T10:03:03.508Z,220
2016-12-23T10:04:12.424Z,210
2016-12-23T10:05:21.317Z,190
2016-12-23T10:06:29.894Z,190
2016-12-23T10:07:38.808Z,160
2016-12-23T10:08:48.016Z,185
2016-12-23T10:09:56.923Z,195
2016-12-23T10:11:05.831Z,180
2016-12-23T10:12:14.402Z,200
2016-12-23T10:13:23.298Z,205
2016-12-23T10:14:32.037Z,190
2016-12-23T10:15:40.932Z,235
2016-12-23T10:16:49.506Z,190
2016-12-23T10:17:58.738Z,185
2016-12-23T10:19:07.331Z,185
2016-12-23T10:20:16.545Z,195
2016-12-23T10:21:25.457Z,185
2016-12-23T10:22:34.036Z,215
2016-12-23T10:23:42.935Z,250
2016-12-23T10:24:51.853Z,195
2016-12-23T10:26:01.112Z,250
2016-12-23T10:27:10.025Z,195
2016-12-23T10:28:19.578Z,190
2016-12-23T10:29:28.154Z,170
2016-12-23T10:30:37.066Z,120
2016-12-23T10:31:46.059Z,95
2016-12-23T10:32:54.643Z,110
2016-12-23T10:34:03.554Z,105
2016-12-23T10:35:13.112Z,135
2016-12-23T10:36:22.646Z,165
2016-12-23T10:37:31.387Z,120
2016-12-23T10:38:39.981Z,160
2016-12-23T10:39:48.557Z,205
2016-12-23T10:40:57.466Z,215
2016-12-23T10:42:06.373Z,260
2016-12-23T10:43:15.434Z,210
2016-12-23T10:44:24.343Z,190
2016-12-23T10:45:33.257Z,185
2016-12-23T10:46:42.151Z,190
2016-12-23T10:47:50.743Z,180
2016-12-23T10:49:00.004Z,215
2016-12-23T10:50:08.602Z,185
2016-12-23T10:51:17.199Z,150
2016-12-23T10:52:26.106Z,165
2016-12-23T10:53:34.713Z,250
2016-12-23T10:54:43.644Z,210
2016-12-23T10:55:52.552Z,175
2016-12-23T10:57:01.456Z,195
2016-12-23T10:58:10.367Z,225
2016-12-23T10:59:18.945Z,255
2016-12-23T11:00:27.594Z,285
2016-12-23T11:01:36.848Z,265
2016-12-23T11:02:46.068Z,235
2016-12-23T11:03:54.982Z,230
2016-12-23T11:05:04.215Z,295
2016-12-23T11:06:13.162Z,275
2016-12-23T11:07:22.381Z,295
2016-12-23T11:08:31.282Z,315
2016-12-23T11:09:39.852Z,275
2016-12-23T11:10:48.760Z,230
2016-12-23T11:11:58.001Z,240
2016-12-23T11:13:06.918Z,255
2016-12-23T11:14:15.821Z,275
2016-12-23T11:15:24.396Z,250
2016-12-23T11:16:32.990Z,255
2016-12-23T11:17:41.918Z,255
2016-12-23T11:18:50.815Z,295
2016-12-23T11:19:59.730Z,290
2016-12-23T11:21:08.640Z,230
2016-12-23T11:22:17.232Z,225
2016-12-23T11:23:26.167Z,310
2016-12-23T11:24:34.768Z,285
2016-12-23T11:25:43.346Z,265
2016-12-23T11:26:51.937Z,280
2016-12-23T11:28:01.483Z,285
2016-12-23T11:29:11.117Z,290
2016-12-23T11:30:19.708Z,285
2016-12-23T11:31:28.299Z,260
2016-12-23T11:32:37.215Z,230
2016-12-23T11:33:45.806Z,235
2016-12-23T11:34:54.760Z,295
2016-12-23T11:36:03.970Z,225
2016-12-23T11:37:12.547Z,215
2016-12-23T11:38:21.124Z,245
2016-12-23T11:39:29.711Z,275
2016-12-23T11:40:38.965Z,290
2016-12-23T11:41:47.540Z,280
2016-12-23T11:42:56.130Z,230
2016-12-23T11:44:05.350Z,195
2016-12-23T11:45:13.946Z,175
2016-12-23T11:46:22.976Z,220
2016-12-23T11:47:32.199Z,210
2016-12-23T11:48:41.123Z,215
2016-12-23T11:49:50.357Z,180
2016-12-23T11:50:58.943Z,190
2016-12-23T11:52:08.252Z,205
2016-12-23T11:53:16.836Z,205
2016-12-23T11:54:25.736Z,220
2016-12-23T11:55:34.330Z,210
2016-12-23T11:56:42.923Z,225
2016-12-23T11:57:52.172Z,225
2016-12-23T11:59:01.094Z,190
2016-12-23T12:00:10.008Z,195
2016-12-23T12:01:19.233Z,165
2016-12-23T12:02:28.476Z,155
2016-12-23T12:03:37.113Z,190
2016-12-23T12:04:46.034Z,175
2016-12-23T12:05:54.606Z,190
2016-12-23T12:07:03.185Z,175
2016-12-23T12:08:12.073Z,165
2016-12-23T12:09:21.012Z,160
2016-12-23T12:10:29.589Z,165
2016-12-23T12:11:38.808Z,135
2016-12-23T12:12:47.704Z,130
2016-12-23T12:13:56.292Z,155
2016-12-23T12:15:05.253Z,160
2016-12-23T12:16:14.492Z,145
2016-12-23T12:17:23.714Z,160
2016-12-23T12:18:32.291Z,135
2016-12-23T12:19:41.200Z,145
2016-12-23T12:20:50.443Z,140
2016-12-23T12:21:59.014Z,140
2016-12-23T12:23:08.216Z,150
2016-12-23T12:24:16.798Z,140
2016-12-23T12:25:25.394Z,125
2016-12-23T12:26:34.321Z,125
2016-12-23T12:27:43.550Z,130
2016-12-23T12:28:52.128Z,135
2016-12-23T12:30:01.349Z,155
2016-12-23T12:31:10.573Z,140
2016-12-23T12:32:19.607Z,150
2016-12-23T12:33:28.515Z,150
2016-12-23T12:34:37.115Z,175
2016-12-23T12:35:45.728Z,175
2016-12-23T12:36:54.616Z,210
2016-12-23T12:38:03.581Z,210
2016-12-23T12:39:12.491Z,220
2016-12-23T12:40:21.432Z,210
2016-12-23T12:41:30.342Z,205
2016-12-23T12:42:39.250Z,185
2016-12-23T12:43:48.313Z,255
2016-12-23T12:44:57.215Z,215
2016-12-23T12:46:05.796Z,225
2016-12-23T12:47:14.364Z,265
2016-12-23T12:48:23.273Z,205
2016-12-23T12:49:32.839Z,205
2016-12-23T12:50:41.411Z,150
2016-12-23T12:51:50.322Z,170
2016-12-23T12:52:59.531Z,170
2016-12-23T12:54:08.118Z,145
2016-12-23T12:55:17.475Z,135
2016-12-23T12:56:26.716Z,160
2016-12-23T12:57:35.629Z,195
2016-12-23T12:58:44.515Z,125
2016-12-23T12:59:53.413Z,125
2016-12-23T13:01:02.678Z,125
2016-12-23T13:02:11.923Z,135
2016-12-23T13:03:20.843Z,205
2016-12-23T13:04:29.438Z,190
2016-12-23T13:05:38.360Z,155
2016-12-23T13:06:47.627Z,145
2016-12-23T13:07:56.215Z,150
2016-12-23T13:09:05.787Z,140
2016-12-23T13:10:14.372Z,140
2016-12-23T13:11:23.291Z,115
2016-12-23T13:12:32.225Z,130
2016-12-23T13:13:41.136Z,125
2016-12-23T13:14:49.732Z,165
2016-12-23T13:15:58.639Z,140
2016-12-23T13:17:07.549Z,140
2016-12-23T13:18:16.867Z,140
2016-12-23T13:19:26.108Z,105
2016-12-23T13:20:35.022Z,100
2016-12-23T13:21:43.601Z,115
2016-12-23T13:22:52.808Z,120
2016-12-23T13:24:02.055Z,115
2016-12-23T13:25:11.579Z,105
2016-12-23T13:26:20.514Z,115
2016-12-23T13:27:29.739Z,145
2016-12-23T13:28:38.317Z,120
2016-12-23T13:29:47.653Z,100
2016-12-23T13:30:56.247Z,100
2016-12-23T13:32:05.161Z,100
2016-12-23T13:33:14.391Z,85
2016-12-23T13:34:22.982Z,105
2016-12-23T13:35:32.232Z,120
2016-12-23T13:36:41.154Z,140
2016-12-23T13:37:49.737Z,110
2016-12-23T13:38:58.686Z,95
2016-12-23T13:40:07.268Z,100
2016-12-23T13:41:16.541Z,95
2016-12-23T13:42:25.450Z,100
2016-12-23T13:43:34.030Z,100
2016-12-23T13:44:43.264Z,100
2016-12-23T13:45:52.161Z,95
2016-12-23T13:47:00.784Z,95
2016-12-23T13:48:09.694Z,105
2016-12-23T13:49:18.616Z,100
2016-12-23T13:50:27.857Z,90
2016-12-23T13:51:36.772Z,95
2016-12-23T13:52:46.109Z,90
2016-12-23T13:53:54.993Z,90
2016-12-23T13:55:04.219Z,100
2016-12-23T13:56:13.776Z,100
2016-12-23T13:57:22.367Z,90
2016-12-23T13:58:31.010Z,105
2016-12-23T13:59:39.606Z,100
2016-12-23T14:00:48.237Z,85
2016-12-23T14:01:56.827Z,95
2016-12-23T14:03:05.715Z,95
2016-12-23T14:04:14.644Z,95
2016-12-23T14:05:23.558Z,100
2016-12-23T14:06:32.464Z,90
2016-12-23T14:07:41.376Z,100
2016-12-23T14:08:49.967Z,110
2016-12-23T14:09:59.326Z,100
2016-12-23T14:11:08.225Z,80
2016-12-23T14:12:16.811Z,80
2016-12-23T14:13:25.731Z,80
2016-12-23T14:14:34.622Z,75
2016-12-23T14:15:43.922Z,80
2016-12-23T14:16:52.494Z,75
2016-12-23T14:18:01.060Z,65
2016-12-23T14:19:10.271Z,55
2016-12-23T14:20:18.845Z,60
2016-12-23T14:21:28.094Z,70
2016-12-23T14:22:37.652Z,70
2016-12-23T14:23:46.250Z,55
2016-12-23T14:24:54.826Z,55
2016-12-23T14:26:03.728Z,50
2016-12-23T14:27:12.648Z,40
2016-12-23T14:28:21.885Z,35
2016-12-23T14:29:30.796Z,45
2016-12-23T14:30:40.012Z,55
2016-12-23T14:32:18.040Z,45
2016-12-23T14:33:26.618Z,30
2016-12-23T14:34:35.522Z,30
2016-12-23T14:35:44.103Z,35
2016-12-23T14:36:52.687Z,50
2016-12-23T14:38:01.622Z,50
2016-12-23T14:39:10.207Z,40
2016-12-23T14:40:19.445Z,30
2016-12-23T14:41:28.351Z,25
2016-12-23T14:42:36.936Z,25
2016-12-23T14:43:45.676Z,25
2016-12-23T14:44:54.895Z,20
2016-12-23T14:46:03.469Z,25
2016-12-23T14:47:13.017Z,20
2016-12-23T14:48:21.605Z,20
2016-12-23T14:49:30.856Z,15
2016-12-23T14:50:39.770Z,15
2016-12-23T14:51:48.999Z,15
2016-12-23T14:52:57.895Z,15
2016-12-23T14:54:06.807Z,10
2016-12-23T14:55:16.439Z,10
2016-12-23T14:56:25.345Z,10
2016-12-23T14:57:34.594Z,10
2016-12-23T14:58:43.508Z,10
2016-12-23T14:59:52.742Z,10
2016-12-23T15:01:01.667Z,10
2016-12-23T15:02:10.584Z,10
2016-12-23T15:03:19.489Z,5
2016-12-23T15:04:28.712Z,5
2016-12-23T15:05:37.604Z,5
2016-12-23T15:06:46.866Z,5
2016-12-23T15:07:55.762Z,5
2016-12-23T15:09:04.990Z,5
2016-12-23T15:10:13.581Z,0
2016-12-23T15:11:22.157Z,0
2016-12-23T15:12:31.787Z,0
2016-12-23T15:13:41.003Z,0
2016-12-23T15:14:50.249Z,0
2016-12-23T15:15:59.158Z,0
2016-12-23T15:17:08.067Z,0
2016-12-23T15:18:16.998Z,0
2016-12-23T15:19:25.905Z,0
2016-12-23T15:20:34.813Z,0
2016-12-23T15:21:43.706Z,0
2016-12-23T15:22:52.608Z,0
2016-12-23T15:24:01.873Z,0
2016-12-23T15:25:10.803Z,0
2016-12-23T15:26:19.380Z,0
2016-12-23T15:27:27.954Z,0
2016-12-23T15:28:36.537Z,0
2016-12-23T15:29:45.795Z,0
2016-12-23T15:30:55.020Z,0
2016-12-23T15:32:03.928Z,0
2016-12-23T15:33:12.517Z,0
2016-12-23T15:34:21.430Z,0
2016-12-23T15:35:30.484Z,0
2016-12-23T15:36:39.058Z,0
2016-12-23T15:37:47.958Z,0
2016-12-23T15:38:56.553Z,0
2016-12-23T15:40:05.459Z,0
2016-12-23T15:41:14.739Z,0
2016-12-23T15:42:23.328Z,0
2016-12-23T15:43:31.906Z,0
2016-12-23T15:44:41.133Z,0
2016-12-23T15:45:49.718Z,0
2016-12-23T15:46:58.700Z,0
2016-12-23T15:48:07.276Z,0
2016-12-23T15:49:15.867Z,0
2016-12-23T15:50:24.782Z,0
2016-12-23T15:51:33.689Z,0
2016-12-23T15:52:43.290Z,0
2016-12-23T15:53:52.183Z,0
2016-12-23T15:55:00.769Z,0
2016-12-23T15:56:09.985Z,0
2016-12-23T15:57:18.559Z,0
2016-12-23T15:58:28.150Z,0
2016-12-23T15:59:36.720Z,0
2016-12-23T16:00:45.959Z,0
2016-12-23T16:01:54.560Z,0
2016-12-23T16:03:03.468Z,0
2016-12-23T16:04:12.408Z,0
2016-12-23T16:05:20.992Z,0
2016-12-23T16:06:29.906Z,0
2016-12-23T16:07:39.452Z,0
2016-12-23T16:08:48.349Z,0
2016-12-23T16:09:57.695Z,0
2016-12-23T16:11:06.593Z,0
2016-12-23T16:12:15.182Z,0
2016-12-23T16:13:23.764Z,0
2016-12-23T16:14:32.661Z,0
2016-12-23T16:15:42.370Z,0
2016-12-23T16:16:50.973Z,0
2016-12-23T16:17:59.552Z,0
2016-12-23T16:19:08.145Z,0
2016-12-23T16:20:16.718Z,0
2016-12-23T16:21:25.972Z,0
2016-12-23T16:22:35.210Z,0
2016-12-23T16:23:43.803Z,0
2016-12-23T16:24:52.711Z,0
2016-12-23T16:26:01.311Z,0
2016-12-23T16:27:10.679Z,0
2016-12-23T16:28:19.263Z,0
2016-12-23T16:29:27.847Z,0
2016-12-23T16:30:36.770Z,0
2016-12-23T16:31:45.354Z,0